Time;durP1;ratioP1;P1;durP2;ratioP2;P2;SDS_P1;SDS_P2;PMS_P1;PMS_P2;Temp;Humidity;BMP_temperature;BMP_pressure;BME280_temperature;BME280_humidity;BME280_pressure;Samples;Min_cycle;Max_cycle;Signal;HPM_P1;HPM_P2
2022/10/27 00:00:28;;;;;;;4.40;2.27;;;12.00;99.90;;;;;;5111490;28;20456;-73
2022/10/27 00:02:55;;;;;;;6.13;3.10;;;12.20;99.90;;;;;;5111540;28;20453;-73
2022/10/27 00:05:21;;;;;;;5.20;2.10;;;12.30;99.90;;;;;;5110565;28;20455;-72
2022/10/27 00:07:49;;;;;;;3.13;1.97;;;12.10;99.90;;;;;;5110433;28;20513;-73
2022/10/27 00:10:16;;;;;;;3.90;2.40;;;11.90;99.90;;;;;;5110484;28;20879;-73
2022/10/27 00:12:44;;;;;;;4.67;2.40;;;12.10;99.90;;;;;;5111206;28;20480;-72
2022/10/27 00:15:12;;;;;;;3.23;2.30;;;12.00;99.90;;;;;;5110300;28;20458;-73
2022/10/27 00:17:39;;;;;;;3.27;2.50;;;12.00;99.90;;;;;;5110275;28;20443;-73
2022/10/27 00:20:08;;;;;;;3.33;2.10;;;11.90;99.90;;;;;;5110925;28;20474;-73
2022/10/27 00:22:35;;;;;;;4.40;2.37;;;11.80;99.90;;;;;;5111051;28;20448;-72
2022/10/27 00:25:02;;;;;;;7.47;2.50;;;11.80;99.90;;;;;;5110723;28;20444;-73
2022/10/27 00:27:29;;;;;;;3.53;2.30;;;11.70;99.90;;;;;;5110719;28;20452;-73
2022/10/27 00:29:57;;;;;;;3.33;2.10;;;11.80;99.90;;;;;;5111466;28;20453;-73
2022/10/27 00:32:24;;;;;;;9.90;2.97;;;11.70;99.90;;;;;;5111120;28;20810;-73
2022/10/27 00:34:51;;;;;;;2.50;1.50;;;11.60;99.90;;;;;;5111098;28;20443;-72
2022/10/27 00:37:18;;;;;;;6.30;3.07;;;11.70;99.90;;;;;;5110010;28;20450;-72
2022/10/27 00:39:45;;;;;;;3.40;2.43;;;11.70;99.90;;;;;;5111117;28;20455;-72
2022/10/27 00:42:13;;;;;;;4.13;2.63;;;11.70;99.90;;;;;;5110030;28;20448;-72
2022/10/27 00:44:42;;;;;;;3.10;2.00;;;11.60;99.90;;;;;;5110838;28;20463;-73
2022/10/27 00:47:21;;;;;;;4.13;2.03;;;11.60;99.90;;;;;;5109665;28;20814;-72
2022/10/27 00:49:52;;;;;;;5.70;2.53;;;11.60;99.90;;;;;;5111193;28;20478;-71
2022/10/27 00:52:27;;;;;;;3.07;2.10;;;11.50;99.90;;;;;;5110639;28;20720;-71
2022/10/27 00:54:58;;;;;;;9.30;2.80;;;11.50;99.90;;;;;;5111714;28;20447;-71
2022/10/27 00:57:27;;;;;;;6.57;2.23;;;11.70;99.90;;;;;;5110715;28;20521;-72
2022/10/27 00:59:54;;;;;;;6.20;3.23;;;11.60;99.90;;;;;;5111437;28;20444;-72
2022/10/27 01:02:22;;;;;;;3.30;2.40;;;11.60;99.90;;;;;;5110312;28;20444;-72
2022/10/27 01:04:54;;;;;;;3.57;2.50;;;11.40;99.90;;;;;;5110622;28;20459;-72
2022/10/27 01:07:23;;;;;;;4.60;2.00;;;11.40;99.90;;;;;;5110008;28;20543;-72
2022/10/27 01:09:51;;;;;;;4.20;3.13;;;11.50;99.90;;;;;;5110996;28;20447;-72
2022/10/27 01:12:18;;;;;;;4.00;2.57;;;11.50;99.90;;;;;;5110114;28;20807;-71
2022/10/27 01:14:45;;;;;;;2.40;1.60;;;11.40;99.90;;;;;;5110565;28;20455;-72
2022/10/27 01:17:25;;;;;;;3.23;2.93;;;11.40;99.90;;;;;;5111441;28;20466;-72
2022/10/27 01:20:32;;;;;;;3.50;2.03;;;11.60;99.90;;;;;;5114320;28;20447;-72
2022/10/27 01:23:03;;;;;;;2.77;2.30;;;11.60;99.90;;;;;;5112494;28;20455;-72
2022/10/27 01:25:52;;;;;;;2.33;2.13;;;11.50;99.90;;;;;;5113927;28;20444;-71
2022/10/27 01:28:38;;;;;;;2.90;2.07;;;11.30;99.90;;;;;;5113146;28;21095;-72
2022/10/27 01:31:09;;;;;;;3.37;2.30;;;11.30;99.90;;;;;;5112142;28;20463;-72
2022/10/27 01:33:44;;;;;;;2.50;2.17;;;11.20;99.90;;;;;;5113920;28;20478;-72
2022/10/27 01:36:20;;;;;;;2.57;2.20;;;11.30;99.90;;;;;;5100945;28;20455;-72
2022/10/27 01:38:54;;;;;;;4.20;2.20;;;11.30;99.90;;;;;;5113371;28;20444;-72
2022/10/27 01:41:24;;;;;;;3.60;2.37;;;11.20;99.90;;;;;;5113392;28;20801;-72
2022/10/27 01:43:54;;;;;;;10.03;2.60;;;11.10;99.90;;;;;;5113482;28;20444;-71
2022/10/27 01:46:22;;;;;;;3.70;2.77;;;11.10;99.90;;;;;;5113437;28;20463;-71
2022/10/27 01:48:49;;;;;;;4.00;2.80;;;11.10;99.90;;;;;;5112609;28;20939;-72
2022/10/27 01:51:16;;;;;;;5.50;2.43;;;11.10;99.90;;;;;;5112991;28;20957;-72
2022/10/27 01:53:46;;;;;;;3.20;2.33;;;11.10;99.90;;;;;;5113489;28;20532;-71
2022/10/27 01:56:29;;;;;;;6.33;2.03;;;11.10;99.90;;;;;;5112998;28;20444;-72
2022/10/27 01:59:09;;;;;;;2.30;1.90;;;11.10;99.90;;;;;;5111878;28;20933;-72
2022/10/27 02:01:48;;;;;;;2.90;2.10;;;11.20;99.90;;;;;;5110180;28;20518;-72
2022/10/27 02:04:21;;;;;;;4.53;2.43;;;11.20;99.90;;;;;;5112828;28;20887;-72
2022/10/27 02:06:55;;;;;;;5.30;1.93;;;11.20;99.90;;;;;;5112974;28;20447;-72
2022/10/27 02:09:28;;;;;;;4.47;2.70;;;11.10;99.90;;;;;;5112792;28;20451;-72
2022/10/27 02:11:58;;;;;;;4.43;2.30;;;11.00;99.90;;;;;;5109028;28;20562;-72
2022/10/27 02:14:25;;;;;;;3.50;2.03;;;11.00;99.90;;;;;;5113650;28;20470;-72
2022/10/27 02:16:54;;;;;;;7.20;2.57;;;10.90;99.90;;;;;;5112460;28;20451;-72
2022/10/27 02:19:25;;;;;;;6.60;2.70;;;10.90;99.90;;;;;;5107212;28;20450;-72
2022/10/27 02:21:56;;;;;;;6.30;2.13;;;10.90;99.90;;;;;;5112914;28;20444;-72
2022/10/27 02:24:23;;;;;;;5.03;2.43;;;10.90;99.90;;;;;;5112692;28;20446;-71
2022/10/27 02:26:53;;;;;;;5.73;3.20;;;10.90;99.90;;;;;;5112712;28;20446;-72
2022/10/27 02:29:24;;;;;;;14.00;3.20;;;10.90;99.90;;;;;;5111609;28;20449;-71
2022/10/27 02:31:56;;;;;;;4.10;3.07;;;10.90;99.90;;;;;;5112915;28;20438;-72
2022/10/27 02:34:25;;;;;;;4.83;2.63;;;11.00;99.90;;;;;;5112561;28;20443;-72
2022/10/27 02:36:52;;;;;;;5.20;2.60;;;11.10;99.90;;;;;;5112626;28;20931;-72
2022/10/27 02:39:19;;;;;;;4.50;2.80;;;11.10;99.90;;;;;;5111800;28;20731;-71
2022/10/27 02:41:46;;;;;;;11.00;2.50;;;11.10;99.90;;;;;;5112536;28;20451;-71
2022/10/27 02:44:13;;;;;;;3.90;2.90;;;11.10;99.90;;;;;;5111778;28;20451;-71
2022/10/27 02:46:40;;;;;;;3.90;2.30;;;11.10;99.90;;;;;;5112414;28;20463;-71
2022/10/27 02:49:08;;;;;;;6.50;3.77;;;11.10;99.90;;;;;;5111601;28;20478;-71
2022/10/27 02:51:34;;;;;;;5.67;2.67;;;11.10;99.90;;;;;;5112226;28;20455;-71
2022/10/27 02:54:01;;;;;;;6.90;3.70;;;11.10;99.90;;;;;;5112085;28;20834;-71
2022/10/27 02:56:28;;;;;;;8.30;3.47;;;11.20;99.90;;;;;;5112245;28;20459;-71
2022/10/27 02:58:55;;;;;;;8.50;3.10;;;11.20;99.90;;;;;;5111992;28;20929;-71
2022/10/27 03:01:21;;;;;;;5.80;3.30;;;11.20;99.90;;;;;;5111158;28;20939;-71
2022/10/27 03:03:48;;;;;;;5.70;3.30;;;11.20;99.90;;;;;;5112670;28;20805;-71
2022/10/27 03:06:16;;;;;;;5.10;3.60;;;11.40;99.90;;;;;;5111527;28;20464;-72
2022/10/27 03:08:43;;;;;;;4.53;2.00;;;11.30;99.90;;;;;;5112084;27;20447;-71
2022/10/27 03:11:10;;;;;;;3.70;3.13;;;11.10;99.90;;;;;;5111117;28;20895;-71
2022/10/27 03:13:37;;;;;;;4.13;2.77;;;11.10;99.90;;;;;;5111695;28;20978;-71
2022/10/27 03:16:04;;;;;;;5.00;2.73;;;11.10;99.90;;;;;;5111599;28;20818;-71
2022/10/27 03:18:30;;;;;;;8.10;3.30;;;11.10;99.90;;;;;;5112253;28;20459;-71
2022/10/27 03:20:57;;;;;;;3.47;2.47;;;11.10;99.90;;;;;;5110937;28;20448;-75
2022/10/27 03:23:26;;;;;;;5.27;3.13;;;11.10;99.90;;;;;;5111450;28;20439;-71
2022/10/27 03:25:52;;;;;;;4.60;2.37;;;11.00;99.90;;;;;;5111686;28;20440;-71
2022/10/27 03:28:19;;;;;;;8.93;3.37;;;11.00;99.90;;;;;;5110636;28;20454;-71
2022/10/27 03:30:46;;;;;;;4.93;3.33;;;11.00;99.90;;;;;;5111746;28;20526;-71
2022/10/27 03:33:13;;;;;;;8.47;2.77;;;11.10;99.90;;;;;;5111217;28;21036;-72
2022/10/27 03:35:39;;;;;;;8.00;3.60;;;11.00;99.90;;;;;;5111750;28;20490;-72
2022/10/27 03:38:06;;;;;;;4.23;3.27;;;11.00;99.90;;;;;;5110484;28;20461;-71
2022/10/27 03:40:34;;;;;;;4.20;2.80;;;11.10;99.90;;;;;;5110978;28;20459;-71
2022/10/27 03:43:01;;;;;;;5.53;3.57;;;11.20;99.90;;;;;;5101119;28;20796;-71
2022/10/27 03:45:28;;;;;;;3.93;2.90;;;11.30;99.90;;;;;;5108530;28;20779;-71
2022/10/27 03:48:02;;;;;;;7.60;3.13;;;11.20;99.90;;;;;;5111043;28;20452;-71
2022/10/27 03:50:30;;;;;;;4.30;2.20;;;11.30;99.90;;;;;;5110059;28;20436;-71
2022/10/27 03:52:57;;;;;;;6.43;3.37;;;11.10;99.90;;;;;;5111247;28;20837;-72
2022/10/27 03:55:24;;;;;;;5.37;3.40;;;11.00;99.90;;;;;;5110754;28;20454;-72
2022/10/27 03:57:53;;;;;;;2.80;2.40;;;11.10;99.90;;;;;;5110681;28;20451;-72
2022/10/27 04:00:20;;;;;;;4.90;2.43;;;11.10;99.90;;;;;;5109727;28;20437;-71
2022/10/27 04:02:47;;;;;;;3.37;2.57;;;11.00;99.90;;;;;;5103751;28;20781;-71
2022/10/27 04:05:14;;;;;;;5.50;2.73;;;10.90;99.90;;;;;;5110924;28;20443;-71
2022/10/27 04:07:41;;;;;;;2.60;2.10;;;10.80;99.90;;;;;;5111205;28;20454;-71
2022/10/27 04:10:08;;;;;;;7.20;3.70;;;10.70;99.90;;;;;;5110658;28;20804;-71
2022/10/27 04:12:35;;;;;;;5.23;2.40;;;10.70;99.90;;;;;;5111139;28;20447;-71
2022/10/27 04:15:04;;;;;;;3.30;2.30;;;10.60;99.90;;;;;;5110451;28;20451;-71
2022/10/27 04:17:31;;;;;;;6.60;3.07;;;10.70;99.90;;;;;;5111229;28;20463;-71
2022/10/27 04:19:57;;;;;;;7.47;4.30;;;10.80;99.90;;;;;;5110828;28;20451;-71
2022/10/27 04:22:24;;;;;;;3.50;2.90;;;10.80;99.90;;;;;;5109396;28;20464;-71
2022/10/27 04:24:51;;;;;;;4.03;2.40;;;10.90;99.90;;;;;;5109003;28;20455;-71
2022/10/27 04:27:18;;;;;;;11.90;2.37;;;11.00;99.90;;;;;;5109152;28;20450;-71
2022/10/27 04:29:44;;;;;;;7.83;2.80;;;11.00;99.90;;;;;;5108375;28;20444;-71
2022/10/27 04:32:13;;;;;;;4.70;3.03;;;10.90;99.90;;;;;;5104476;28;20462;-72
2022/10/27 04:34:39;;;;;;;5.57;2.87;;;10.90;99.90;;;;;;5108680;28;20492;-71
2022/10/27 04:37:06;;;;;;;5.33;2.60;;;10.90;99.90;;;;;;5108390;28;20810;-72
2022/10/27 04:39:33;;;;;;;9.33;3.90;;;11.00;99.90;;;;;;5106909;28;20452;-72
2022/10/27 04:42:00;;;;;;;4.60;3.03;;;10.90;99.90;;;;;;5108023;28;20455;-72
2022/10/27 04:44:26;;;;;;;6.23;2.83;;;11.10;99.90;;;;;;5108545;28;20466;-72
2022/10/27 04:46:53;;;;;;;6.33;2.27;;;10.90;99.90;;;;;;5107889;28;20768;-72
2022/10/27 04:49:21;;;;;;;5.40;3.67;;;10.70;99.90;;;;;;5108195;28;20510;-72
2022/10/27 04:51:49;;;;;;;4.43;2.57;;;10.70;99.90;;;;;;5109919;28;20930;-72
2022/10/27 04:54:15;;;;;;;4.30;2.90;;;10.70;99.90;;;;;;5109720;28;20491;-73
2022/10/27 04:56:42;;;;;;;3.00;2.67;;;10.90;99.90;;;;;;5114461;28;20799;-73
2022/10/27 04:59:09;;;;;;;4.77;3.00;;;11.00;99.90;;;;;;5113016;28;20447;-74
2022/10/27 05:01:36;;;;;;;4.67;2.50;;;11.10;99.90;;;;;;5114852;28;20455;-74
2022/10/27 05:04:03;;;;;;;4.27;2.93;;;10.90;99.90;;;;;;5114173;28;20447;-74
2022/10/27 05:06:31;;;;;;;4.63;3.03;;;11.00;99.90;;;;;;5113953;28;20815;-74
2022/10/27 05:08:58;;;;;;;9.47;3.70;;;11.00;99.90;;;;;;5113914;28;20451;-75
2022/10/27 05:11:24;;;;;;;2.93;2.43;;;11.00;99.90;;;;;;5114619;28;20443;-74
2022/10/27 05:13:52;;;;;;;3.50;2.53;;;11.00;99.90;;;;;;5112613;28;20483;-73
2022/10/27 05:16:19;;;;;;;4.40;2.53;;;11.10;99.90;;;;;;5113491;28;20466;-74
2022/10/27 05:18:45;;;;;;;5.30;3.07;;;11.20;99.90;;;;;;5114279;28;20448;-74
2022/10/27 05:21:12;;;;;;;6.50;2.90;;;11.20;99.90;;;;;;5112019;28;20444;-74
2022/10/27 05:23:40;;;;;;;3.90;3.10;;;11.10;99.90;;;;;;5109223;28;20453;-74
2022/10/27 05:26:07;;;;;;;6.37;2.20;;;11.00;99.90;;;;;;5113724;28;20447;-74
2022/10/27 05:28:34;;;;;;;7.13;3.80;;;10.80;99.90;;;;;;5113695;28;20468;-74
2022/10/27 05:31:02;;;;;;;11.67;5.03;;;10.90;99.90;;;;;;5114002;28;20451;-73
2022/10/27 05:33:29;;;;;;;9.27;3.10;;;10.70;99.90;;;;;;5114052;28;20467;-74
2022/10/27 05:35:56;;;;;;;6.70;4.20;;;10.60;99.90;;;;;;5108463;28;20448;-75
2022/10/27 05:38:23;;;;;;;4.10;2.83;;;10.60;99.90;;;;;;5107600;28;20450;-72
2022/10/27 05:40:56;;;;;;;12.70;7.17;;;10.50;99.90;;;;;;5113219;28;20444;-72
2022/10/27 05:43:23;;;;;;;5.70;2.93;;;;;;;;;;5112690;28;20565;-73
2022/10/27 05:45:50;;;;;;;4.40;2.70;;;10.60;99.90;;;;;;5113013;28;20451;-70
2022/10/27 05:48:17;;;;;;;7.70;3.70;;;10.60;99.90;;;;;;5112277;28;20455;-71
2022/10/27 05:50:43;;;;;;;4.30;2.33;;;10.60;99.90;;;;;;5114400;28;20451;-69
2022/10/27 05:53:10;;;;;;;4.67;3.10;;;10.60;99.90;;;;;;5112091;28;20461;-70
2022/10/27 05:55:37;;;;;;;3.97;2.73;;;10.50;99.90;;;;;;5100716;28;20454;-70
2022/10/27 05:58:06;;;;;;;4.60;3.17;;;10.50;99.90;;;;;;5111716;28;20451;-69
2022/10/27 06:00:35;;;;;;;3.80;2.93;;;10.50;99.90;;;;;;5114032;28;20447;-70
2022/10/27 06:03:04;;;;;;;5.53;3.90;;;10.60;99.90;;;;;;5112381;27;20796;-69
2022/10/27 06:05:32;;;;;;;6.10;2.70;;;10.50;99.90;;;;;;5113855;28;20447;-70
2022/10/27 06:07:59;;;;;;;9.00;3.57;;;10.50;99.90;;;;;;5112209;28;20453;-70
2022/10/27 06:10:28;;;;;;;5.80;3.30;;;10.60;99.90;;;;;;5113355;27;20442;-71
2022/10/27 06:13:01;;;;;;;7.67;3.93;;;10.50;99.90;;;;;;5113230;27;20507;-72
2022/10/27 06:15:30;;;;;;;10.80;4.23;;;10.50;99.90;;;;;;5113250;28;20523;-72
2022/10/27 06:17:57;;;;;;;5.23;3.23;;;10.80;99.90;;;;;;5112370;28;20823;-73
2022/10/27 06:20:24;;;;;;;5.57;3.53;;;10.80;99.90;;;;;;5112450;28;20528;-72
2022/10/27 06:22:51;;;;;;;24.03;4.10;;;10.70;99.90;;;;;;5112717;28;20447;-72
2022/10/27 06:25:18;;;;;;;8.20;3.70;;;10.90;99.90;;;;;;5103981;28;20447;-73
2022/10/27 06:27:45;;;;;;;4.97;3.33;;;11.00;99.90;;;;;;5108593;28;20440;-72
2022/10/27 06:30:12;;;;;;;6.10;4.30;;;11.00;99.90;;;;;;5110826;28;20809;-72
2022/10/27 06:32:41;;;;;;;5.30;4.10;;;11.00;99.90;;;;;;5112723;28;20845;-73
2022/10/27 06:35:09;;;;;;;6.40;3.70;;;11.10;99.90;;;;;;5112447;28;20567;-72
2022/10/27 06:37:39;;;;;;;5.83;3.23;;;11.10;99.90;;;;;;5111753;28;20447;-72
2022/10/27 06:40:07;;;;;;;5.90;3.07;;;11.20;99.90;;;;;;5105849;28;20456;-72
2022/10/27 06:42:36;;;;;;;5.70;4.03;;;11.30;99.90;;;;;;5113261;28;20459;-72
2022/10/27 06:45:04;;;;;;;5.10;3.00;;;11.30;99.90;;;;;;5111410;28;20974;-72
2022/10/27 06:47:30;;;;;;;5.10;3.97;;;11.30;99.90;;;;;;5112945;28;20557;-72
2022/10/27 06:49:59;;;;;;;6.43;3.57;;;11.30;99.90;;;;;;5112078;28;20476;-72
2022/10/27 06:52:26;;;;;;;5.43;3.93;;;11.30;99.90;;;;;;5112994;28;20447;-72
2022/10/27 06:54:53;;;;;;;5.47;3.27;;;11.30;99.90;;;;;;5110376;28;21023;-71
2022/10/27 06:57:20;;;;;;;6.30;5.30;;;11.30;99.90;;;;;;5098156;28;20464;-72
2022/10/27 06:59:46;;;;;;;9.67;4.50;;;11.30;99.90;;;;;;5111583;28;20452;-72
2022/10/27 07:02:14;;;;;;;6.20;3.53;;;11.20;99.90;;;;;;5108972;28;20453;-71
2022/10/27 07:04:41;;;;;;;10.33;4.27;;;11.30;99.90;;;;;;5110794;28;20455;-68
2022/10/27 07:07:09;;;;;;;5.13;3.30;;;11.30;99.90;;;;;;5112100;28;20481;-68
2022/10/27 07:09:36;;;;;;;3.90;3.37;;;11.30;99.90;;;;;;5112114;28;20447;-68
2022/10/27 07:12:03;;;;;;;7.03;3.50;;;11.30;99.90;;;;;;5111568;28;20448;-72
2022/10/27 07:14:29;;;;;;;7.97;4.10;;;11.30;99.90;;;;;;5111928;28;20475;-70
2022/10/27 07:16:59;;;;;;;4.93;3.60;;;11.40;99.90;;;;;;5112674;28;20464;-73
2022/10/27 07:19:25;;;;;;;5.23;4.27;;;11.50;99.90;;;;;;5111633;28;20455;-73
2022/10/27 07:21:52;;;;;;;4.30;3.87;;;11.50;99.90;;;;;;5112259;28;20447;-72
2022/10/27 07:24:20;;;;;;;7.10;4.67;;;11.60;99.90;;;;;;5111191;28;20791;-73
2022/10/27 07:26:47;;;;;;;5.80;4.10;;;11.60;99.90;;;;;;5111689;28;20448;-72
2022/10/27 07:29:14;;;;;;;4.70;3.00;;;11.70;99.90;;;;;;5110542;28;20923;-72
2022/10/27 07:31:44;;;;;;;7.40;3.73;;;11.90;99.90;;;;;;5112227;28;20803;-72
2022/10/27 07:34:11;;;;;;;6.50;4.30;;;12.00;99.90;;;;;;5111190;28;20467;-76
2022/10/27 07:36:38;;;;;;;6.73;4.00;;;12.10;99.90;;;;;;5112127;28;20479;-74
2022/10/27 07:39:06;;;;;;;6.33;3.80;;;12.30;99.90;;;;;;5110922;28;20443;-74
2022/10/27 07:41:34;;;;;;;5.23;4.03;;;12.30;99.90;;;;;;5111601;28;20452;-73
2022/10/27 07:44:01;;;;;;;4.70;3.27;;;12.40;99.90;;;;;;5111402;28;20455;-75
2022/10/27 07:46:29;;;;;;;9.70;4.13;;;12.50;99.90;;;;;;5112079;28;20452;-74
2022/10/27 07:48:56;;;;;;;6.50;4.00;;;12.50;99.90;;;;;;5111245;28;20946;-73
2022/10/27 07:51:23;;;;;;;7.00;3.83;;;12.50;99.90;;;;;;5111275;28;20954;-73
2022/10/27 07:53:50;;;;;;;5.40;4.57;;;12.60;99.90;;;;;;5111222;28;20793;-73
2022/10/27 07:56:17;;;;;;;3.80;3.37;;;12.70;99.90;;;;;;5110769;28;20497;-75
2022/10/27 07:58:48;;;;;;;6.23;3.73;;;12.70;99.90;;;;;;5112509;28;20444;-74
2022/10/27 08:01:15;;;;;;;5.87;3.27;;;12.70;99.90;;;;;;5113568;28;20444;-75
2022/10/27 08:03:41;;;;;;;9.17;5.03;;;12.80;99.90;;;;;;5111928;28;20466;-73
2022/10/27 08:06:08;;;;;;;6.90;4.60;;;12.90;99.90;;;;;;5110858;28;20451;-73
2022/10/27 08:08:35;;;;;;;9.30;4.50;;;12.90;99.90;;;;;;5097167;28;20784;-73
2022/10/27 08:11:02;;;;;;;7.97;4.67;;;13.00;99.90;;;;;;5106495;28;20451;-73
2022/10/27 08:13:29;;;;;;;5.00;3.40;;;13.00;99.90;;;;;;5109177;28;20443;-73
2022/10/27 08:15:59;;;;;;;6.60;3.80;;;13.10;99.90;;;;;;5109007;28;20487;-74
2022/10/27 08:18:26;;;;;;;4.47;3.40;;;13.20;99.90;;;;;;5108316;28;20493;-74
2022/10/27 08:20:52;;;;;;;6.70;3.90;;;13.40;99.90;;;;;;5108152;28;20454;-74
2022/10/27 08:23:23;;;;;;;6.20;4.43;;;13.40;99.90;;;;;;5105774;28;20537;-74
2022/10/27 08:25:50;;;;;;;6.33;4.27;;;13.40;99.90;;;;;;5108607;28;20448;-72
2022/10/27 08:28:17;;;;;;;7.40;4.37;;;13.50;99.90;;;;;;5111459;28;20459;-72
2022/10/27 08:30:44;;;;;;;7.90;4.40;;;13.60;99.90;;;;;;5113149;28;20470;-73
2022/10/27 08:33:12;;;;;;;7.37;4.37;;;13.60;99.90;;;;;;5112695;28;20457;-72
2022/10/27 08:35:40;;;;;;;7.67;5.03;;;13.70;99.90;;;;;;5113095;28;20510;-73
2022/10/27 08:38:09;;;;;;;7.03;4.53;;;13.80;99.90;;;;;;5102379;28;20456;-73
2022/10/27 08:40:43;;;;;;;8.00;4.47;;;14.00;99.90;;;;;;5113142;28;20451;-74
2022/10/27 08:43:46;;;;;;;7.63;4.93;;;14.00;99.90;;;;;;5101114;28;20446;-74
2022/10/27 08:46:20;;;;;;;8.57;5.10;;;14.10;99.90;;;;;;5101521;28;20525;-74
2022/10/27 08:48:50;;;;;;;9.10;3.93;;;14.10;99.90;;;;;;5112360;28;20495;-74
2022/10/27 08:51:21;;;;;;;11.40;4.70;;;14.20;99.90;;;;;;5112167;28;20806;-74
2022/10/27 08:53:52;;;;;;;8.47;4.47;;;14.40;99.90;;;;;;5112511;28;20444;-74
2022/10/27 08:56:21;;;;;;;5.00;4.50;;;14.50;99.90;;;;;;5112297;28;21028;-74
2022/10/27 08:58:49;;;;;;;10.40;4.63;;;14.50;99.90;;;;;;5112237;28;20459;-75
2022/10/27 09:01:27;;;;;;;5.07;4.00;;;14.50;99.90;;;;;;5112008;28;20432;-75
2022/10/27 09:04:09;;;;;;;6.00;4.90;;;14.60;99.90;;;;;;5101141;28;20444;-75
2022/10/27 09:06:41;;;;;;;5.60;3.50;;;14.70;99.90;;;;;;5112085;28;20435;-74
2022/10/27 09:09:17;;;;;;;10.47;4.87;;;15.10;99.90;;;;;;5111381;28;20448;-74
2022/10/27 09:11:57;;;;;;;6.67;4.23;;;15.40;99.90;;;;;;5112514;28;20443;-74
2022/10/27 09:14:44;;;;;;;6.77;4.63;;;15.50;99.90;;;;;;5112261;28;20494;-75
2022/10/27 09:17:14;;;;;;;9.93;4.30;;;15.60;99.90;;;;;;5111893;28;20528;-75
2022/10/27 09:19:46;;;;;;;6.63;5.07;;;15.50;99.90;;;;;;5112089;28;20459;-75
2022/10/27 09:22:16;;;;;;;5.93;4.30;;;15.60;99.90;;;;;;5109881;28;20448;-75
2022/10/27 09:24:43;;;;;;;6.53;3.70;;;15.70;61.60;;;;;;5111606;28;20477;-75
2022/10/27 09:27:15;;;;;;;10.00;3.80;;;15.70;17.70;;;;;;5110461;28;20943;-74
2022/10/27 09:29:42;;;;;;;4.93;3.67;;;15.70;1.00;;;;;;5109087;28;20443;-74
2022/10/27 09:32:17;;;;;;;6.97;4.00;;;15.80;1.00;;;;;;5098248;28;20444;-75
2022/10/27 09:34:49;;;;;;;5.73;3.40;;;15.90;1.00;;;;;;5111532;28;20477;-75
2022/10/27 09:37:18;;;;;;;4.13;3.63;;;16.20;1.00;;;;;;5110820;28;20444;-75
2022/10/27 09:39:47;;;;;;;8.37;3.40;;;16.30;1.00;;;;;;5109771;28;20806;-76
2022/10/27 09:42:14;;;;;;;5.23;3.50;;;16.40;1.00;;;;;;5111024;28;20448;-72
2022/10/27 09:44:48;;;;;;;4.30;3.60;;;16.70;1.00;;;;;;5108597;28;20466;-76
2022/10/27 09:47:15;;;;;;;6.30;3.40;;;16.70;99.90;;;;;;5110403;28;20467;-74
2022/10/27 09:49:47;;;;;;;8.03;3.63;;;16.90;1.00;;;;;;5103906;28;20473;-76
2022/10/27 09:52:20;;;;;;;4.17;2.40;;;17.00;99.90;;;;;;5111038;28;20450;-75
2022/10/27 09:54:52;;;;;;;3.00;1.63;;;17.60;1.00;;;;;;5110907;28;20785;-74
2022/10/27 09:57:22;;;;;;;7.30;2.63;;;17.90;99.90;;;;;;5110117;28;20475;-76
2022/10/27 09:59:59;;;;;;;5.90;3.40;;;18.00;1.00;;;;;;5110508;28;20448;-76
2022/10/27 10:02:30;;;;;;;11.70;4.47;;;18.00;99.90;;;;;;5110281;28;20444;-76
2022/10/27 10:04:59;;;;;;;5.73;4.43;;;17.80;1.00;;;;;;5110565;28;20448;-74
2022/10/27 10:07:34;;;;;;;5.90;4.23;;;17.90;99.90;;;;;;5111793;28;20448;-75
2022/10/27 10:10:07;;;;;;;3.63;3.03;;;17.90;99.90;;;;;;5110396;28;20785;-76
2022/10/27 10:12:34;;;;;;;9.23;3.17;;;18.00;1.00;;;;;;5111755;28;20455;-74
2022/10/27 10:15:22;;;;;;;3.30;1.93;;;18.10;1.00;;;;;;5110779;28;20484;-75
2022/10/27 10:17:57;;;;;;;2.13;1.73;;;18.50;4.60;;;;;;5111118;27;20797;-75
2022/10/27 10:20:33;;;;;;;3.47;1.67;;;18.80;1.00;;;;;;5110927;28;20518;-74
2022/10/27 10:23:02;;;;;;;4.40;1.50;;;19.00;99.90;;;;;;5110617;28;20444;-76
2022/10/27 10:25:32;;;;;;;4.23;1.83;;;19.10;99.90;;;;;;5106971;28;20448;-75
2022/10/27 10:28:02;;;;;;;3.03;1.60;;;19.30;38.20;;;;;;5109314;28;20485;-71
2022/10/27 10:30:34;;;;;;;2.70;1.57;;;19.30;1.00;;;;;;5110100;28;20440;-73
2022/10/27 10:33:04;;;;;;;3.43;1.50;;;19.50;1.00;;;;;;5102631;28;20444;-75
2022/10/27 10:35:45;;;;;;;4.47;3.00;;;19.50;1.00;;;;;;5109768;28;20463;-72
2022/10/27 10:38:26;;;;;;;3.10;1.67;;;19.60;99.90;;;;;;5108680;28;20440;-73
2022/10/27 10:41:04;;;;;;;3.03;1.27;;;19.90;99.90;;;;;;5110274;28;20451;-73
2022/10/27 10:43:31;;;;;;;4.53;1.90;;;19.90;99.90;;;;;;5107576;28;21002;-73
2022/10/27 10:45:59;;;;;;;4.10;1.50;;;20.00;1.00;;;;;;5109595;28;20467;-74
2022/10/27 10:48:32;;;;;;;4.10;1.53;;;20.00;99.90;;;;;;5107821;28;20487;-73
2022/10/27 10:51:01;;;;;;;2.23;1.43;;;20.20;99.90;;;;;;5109443;28;20463;-70
2022/10/27 10:53:32;;;;;;;3.83;2.27;;;20.20;99.90;;;;;;5108550;28;20472;-74
2022/10/27 10:56:02;;;;;;;1.60;1.50;;;20.30;99.90;;;;;;5109710;28;20483;-76
2022/10/27 10:58:32;;;;;;;2.40;1.47;;;20.50;99.90;;;;;;5109275;28;20950;-72
2022/10/27 11:01:01;;;;;;;2.23;1.27;;;20.30;99.90;;;;;;5110370;28;20448;-69
2022/10/27 11:03:31;;;;;;;4.03;1.33;;;20.40;99.90;;;;;;5110591;28;20474;-73
2022/10/27 11:06:02;;;;;;;1.93;1.70;;;20.60;99.90;;;;;;5110507;28;20460;-75
2022/10/27 11:08:41;;;;;;;2.50;1.47;;;20.50;99.90;;;;;;5109971;28;20440;-72
2022/10/27 11:11:15;;;;;;;1.97;1.40;;;20.60;99.90;;;;;;5109482;28;20439;-74
2022/10/27 11:13:46;;;;;;;2.40;1.30;;;21.00;99.90;;;;;;5110087;28;20439;-73
2022/10/27 11:16:14;;;;;;;7.63;1.80;;;21.00;99.90;;;;;;5108624;28;20860;-72
2022/10/27 11:18:52;;;;;;;2.97;1.97;;;21.00;99.90;;;;;;5105129;28;20448;-73
2022/10/27 11:21:30;;;;;;;1.97;1.50;;;21.10;99.90;;;;;;5107723;28;20672;-74
2022/10/27 11:24:00;;;;;;;6.10;3.17;;;21.10;99.90;;;;;;5102147;28;20492;-74
2022/10/27 11:26:32;;;;;;;3.73;2.10;;;21.40;99.90;;;;;;5109365;28;21009;-74
2022/10/27 11:29:07;;;;;;;5.30;2.27;;;21.70;99.90;;;;;;5108119;28;20831;-68
2022/10/27 11:31:38;;;;;;;2.33;1.10;;;21.40;99.90;;;;;;5108763;28;20447;-74
2022/10/27 11:34:15;;;;;;;2.00;1.70;;;21.50;99.90;;;;;;5108934;28;20435;-74
2022/10/27 11:36:49;;;;;;;3.00;1.70;;;21.40;99.90;;;;;;5109434;28;20467;-73
2022/10/27 11:39:22;;;;;;;1.73;1.50;;;21.50;99.90;;;;;;5104678;28;20443;-72
2022/10/27 11:41:54;;;;;;;3.00;2.10;;;21.70;99.90;;;;;;5109424;28;20435;-74
2022/10/27 11:44:28;;;;;;;2.70;1.80;;;21.90;99.90;;;;;;5093591;28;20455;-74
2022/10/27 11:47:01;;;;;;;2.87;1.30;;;21.60;99.90;;;;;;5109485;28;20462;-74
2022/10/27 11:49:36;;;;;;;2.80;1.40;;;21.70;99.90;;;;;;5101482;28;20475;-74
2022/10/27 11:52:13;;;;;;;2.27;1.70;;;21.70;99.90;;;;;;5108869;28;20447;-74
2022/10/27 11:54:40;;;;;;;2.70;1.80;;;21.80;99.90;;;;;;5107585;28;20445;-73
2022/10/27 11:57:22;;;;;;;2.37;1.37;;;22.10;99.90;;;;;;5108310;28;20492;-75
2022/10/27 12:00:00;;;;;;;4.13;2.70;;;22.10;99.90;;;;;;5115234;28;20463;-77
2022/10/27 12:02:54;;;;;;;2.50;1.50;;;22.20;99.90;;;;;;5108717;28;20949;-77
2022/10/27 12:05:25;;;;;;;2.33;1.80;;;22.30;99.90;;;;;;5096428;28;20455;-77
2022/10/27 12:08:03;;;;;;;1.73;1.47;;;22.50;99.90;;;;;;5110303;28;20452;-76
2022/10/27 12:10:37;;;;;;;4.93;1.50;;;22.20;99.90;;;;;;5113052;28;20492;-76
2022/10/27 12:13:10;;;;;;;2.03;1.10;;;22.10;99.90;;;;;;5109295;28;20443;-76
2022/10/27 12:15:44;;;;;;;3.40;1.63;;;22.50;99.90;;;;;;5109342;28;20502;-77
2022/10/27 12:18:21;;;;;;;1.97;1.10;;;22.60;99.90;;;;;;5108544;28;20925;-76
2022/10/27 12:20:54;;;;;;;1.67;1.20;;;22.80;99.90;;;;;;5108413;28;20474;-76
2022/10/27 12:23:25;;;;;;;3.27;1.57;;;22.60;99.90;;;;;;5096038;28;20451;-76
2022/10/27 12:25:58;;;;;;;2.20;1.43;;;22.80;99.90;;;;;;5108544;28;20459;-76
2022/10/27 12:28:27;;;;;;;2.83;1.20;;;22.90;99.90;;;;;;5108419;28;20432;-76
2022/10/27 12:30:58;;;;;;;3.73;1.60;;;23.00;99.90;;;;;;5106995;28;20458;-76
2022/10/27 12:33:29;;;;;;;2.33;1.50;;;22.80;99.90;;;;;;5101348;28;20437;-76
2022/10/27 12:36:04;;;;;;;3.30;1.43;;;22.70;99.90;;;;;;5104840;28;20468;-76
2022/10/27 12:38:41;;;;;;;2.03;1.10;;;22.80;99.90;;;;;;5106133;28;20440;-76
2022/10/27 12:41:14;;;;;;;1.90;1.10;;;22.80;99.90;;;;;;5099804;28;20447;-75
2022/10/27 12:43:51;;;;;;;3.70;1.40;;;22.90;99.90;;;;;;5100660;28;20448;-75
2022/10/27 12:46:30;;;;;;;2.00;1.63;;;22.90;99.90;;;;;;5100424;28;20926;-75
2022/10/27 12:49:09;;;;;;;3.43;1.33;;;23.20;99.90;;;;;;5108169;28;20479;-76
2022/10/27 12:51:46;;;;;;;1.80;1.30;;;23.50;99.90;;;;;;5105103;28;20556;-75
2022/10/27 12:54:28;;;;;;;2.07;1.87;;;23.30;99.90;;;;;;5103350;28;20439;-76
2022/10/27 12:57:05;;;;;;;3.83;1.40;;;23.30;99.90;;;;;;5106270;28;20877;-75
2022/10/27 12:59:45;;;;;;;2.60;1.40;;;23.30;99.90;;;;;;5104923;28;20866;-76
2022/10/27 13:02:13;;;;;;;7.07;1.20;;;23.50;99.90;;;;;;5103912;28;20736;-76